sensor_id;sensor_type;location;lat;lon;timestamp;pressure;altitude;pressure_sealevel;temperature;humidity
30730;BME280;17476;48.458;7.928;2022-08-25T00:01:52;99850.88;;;23.30;55.84
30730;BME280;17476;48.458;7.928;2022-08-25T00:04:19;99854.13;;;23.32;55.87
30730;BME280;17476;48.458;7.928;2022-08-25T00:06:47;99851.75;;;23.35;55.60
30730;BME280;17476;48.458;7.928;2022-08-25T00:09:17;99848.19;;;23.30;56.26
30730;BME280;17476;48.458;7.928;2022-08-25T00:11:45;99854.59;;;23.29;56.43
30730;BME280;17476;48.458;7.928;2022-08-25T00:14:27;99861.53;;;23.30;56.22
30730;BME280;17476;48.458;7.928;2022-08-25T00:16:53;99863.66;;;23.28;55.89
30730;BME280;17476;48.458;7.928;2022-08-25T00:19:29;99859.06;;;23.23;56.06
30730;BME280;17476;48.458;7.928;2022-08-25T00:21:57;99862.00;;;23.22;56.33
30730;BME280;17476;48.458;7.928;2022-08-25T00:24:23;99866.53;;;23.21;56.58
30730;BME280;17476;48.458;7.928;2022-08-25T00:26:53;99862.25;;;23.20;56.11
30730;BME280;17476;48.458;7.928;2022-08-25T00:29:20;99864.28;;;23.13;56.92
30730;BME280;17476;48.458;7.928;2022-08-25T00:31:47;99864.28;;;23.13;56.52
30730;BME280;17476;48.458;7.928;2022-08-25T00:34:22;99860.00;;;23.12;56.31
30730;BME280;17476;48.458;7.928;2022-08-25T00:36:49;99866.06;;;23.07;56.85
30730;BME280;17476;48.458;7.928;2022-08-25T00:39:18;99862.59;;;23.07;57.10
30730;BME280;17476;48.458;7.928;2022-08-25T00:41:47;99860.44;;;23.04;57.23
30730;BME280;17476;48.458;7.928;2022-08-25T00:44:14;99869.44;;;22.98;57.01
30730;BME280;17476;48.458;7.928;2022-08-25T00:46:51;99870.41;;;22.92;57.51
30730;BME280;17476;48.458;7.928;2022-08-25T00:49:37;99883.69;;;22.86;59.27
30730;BME280;17476;48.458;7.928;2022-08-25T00:57:28;99878.53;;;22.63;59.00
30730;BME280;17476;48.458;7.928;2022-08-25T00:59:54;99876.66;;;22.64;58.69
30730;BME280;17476;48.458;7.928;2022-08-25T01:02:21;99880.03;;;22.59;59.10
30730;BME280;17476;48.458;7.928;2022-08-25T01:04:48;99881.66;;;22.60;58.53
30730;BME280;17476;48.458;7.928;2022-08-25T01:07:16;99882.47;;;22.60;58.76
30730;BME280;17476;48.458;7.928;2022-08-25T01:09:45;99884.56;;;22.58;59.14
30730;BME280;17476;48.458;7.928;2022-08-25T01:12:12;99889.66;;;22.60;58.55
30730;BME280;17476;48.458;7.928;2022-08-25T01:14:44;99881.91;;;22.58;59.70
30730;BME280;17476;48.458;7.928;2022-08-25T01:17:12;99884.75;;;22.52;59.04
30730;BME280;17476;48.458;7.928;2022-08-25T01:19:38;99882.31;;;22.50;59.62
30730;BME280;17476;48.458;7.928;2022-08-25T01:22:04;99877.81;;;22.51;59.39
30730;BME280;17476;48.458;7.928;2022-08-25T01:24:58;99873.28;;;22.51;59.35
30730;BME280;17476;48.458;7.928;2022-08-25T01:27:26;99876.75;;;22.52;59.47
30730;BME280;17476;48.458;7.928;2022-08-25T01:29:52;99873.53;;;22.50;59.42
30730;BME280;17476;48.458;7.928;2022-08-25T01:32:18;99879.06;;;22.48;59.49
30730;BME280;17476;48.458;7.928;2022-08-25T01:34:45;99878.25;;;22.48;59.20
30730;BME280;17476;48.458;7.928;2022-08-25T01:37:13;99880.38;;;22.46;60.00
30730;BME280;17476;48.458;7.928;2022-08-25T01:39:40;99882.75;;;22.42;61.42
30730;BME280;17476;48.458;7.928;2022-08-25T01:44:37;99872.50;;;22.05;61.52
30730;BME280;17476;48.458;7.928;2022-08-25T01:49:30;99870.31;;;22.02;62.20
30730;BME280;17476;48.458;7.928;2022-08-25T01:52:06;99872.91;;;21.97;62.07
30730;BME280;17476;48.458;7.928;2022-08-25T01:54:34;99866.41;;;21.93;64.00
30730;BME280;17476;48.458;7.928;2022-08-25T01:57:00;99867.06;;;21.84;62.98
30730;BME280;17476;48.458;7.928;2022-08-25T01:59:26;99866.09;;;21.90;63.63
30730;BME280;17476;48.458;7.928;2022-08-25T02:01:53;99868.44;;;21.58;65.21
30730;BME280;17476;48.458;7.928;2022-08-25T02:04:19;99873.88;;;21.63;64.10
30730;BME280;17476;48.458;7.928;2022-08-25T02:06:46;99872.91;;;21.69;63.68
30730;BME280;17476;48.458;7.928;2022-08-25T02:09:15;99875.06;;;21.55;64.73
30730;BME280;17476;48.458;7.928;2022-08-25T02:11:45;99873.28;;;21.61;64.28
30730;BME280;17476;48.458;7.928;2022-08-25T02:14:12;99870.44;;;21.50;65.86
30730;BME280;17476;48.458;7.928;2022-08-25T02:16:41;99870.00;;;21.42;66.16
30730;BME280;17476;48.458;7.928;2022-08-25T02:19:10;99876.44;;;21.46;64.81
30730;BME280;17476;48.458;7.928;2022-08-25T02:21:37;99865.47;;;21.54;64.53
30730;BME280;17476;48.458;7.928;2022-08-25T02:24:04;99867.88;;;21.56;65.32
30730;BME280;17476;48.458;7.928;2022-08-25T02:26:32;99861.16;;;21.53;64.30
30730;BME280;17476;48.458;7.928;2022-08-25T02:28:58;99864.41;;;21.55;64.51
30730;BME280;17476;48.458;7.928;2022-08-25T02:31:25;99868.69;;;21.56;63.95
30730;BME280;17476;48.458;7.928;2022-08-25T02:33:51;99863.22;;;21.63;64.01
30730;BME280;17476;48.458;7.928;2022-08-25T02:36:18;99865.97;;;21.68;63.41
30730;BME280;17476;48.458;7.928;2022-08-25T02:38:44;99858.47;;;21.65;63.65
30730;BME280;17476;48.458;7.928;2022-08-25T02:41:14;99857.16;;;21.67;63.97
30730;BME280;17476;48.458;7.928;2022-08-25T02:43:42;99860.22;;;21.59;64.69
30730;BME280;17476;48.458;7.928;2022-08-25T02:46:10;99854.22;;;21.52;64.28
30730;BME280;17476;48.458;7.928;2022-08-25T02:48:38;99859.09;;;21.55;64.15
30730;BME280;17476;48.458;7.928;2022-08-25T02:51:08;99856.50;;;21.60;64.04
30730;BME280;17476;48.458;7.928;2022-08-25T02:53:37;99856.28;;;21.62;63.93
30730;BME280;17476;48.458;7.928;2022-08-25T02:56:06;99864.03;;;21.63;64.29
30730;BME280;17476;48.458;7.928;2022-08-25T02:58:34;99853.94;;;21.65;63.46
30730;BME280;17476;48.458;7.928;2022-08-25T03:01:00;99863.22;;;21.63;64.16
30730;BME280;17476;48.458;7.928;2022-08-25T03:03:26;99856.84;;;21.64;63.87
30730;BME280;17476;48.458;7.928;2022-08-25T03:05:52;99853.38;;;21.63;63.79
30730;BME280;17476;48.458;7.928;2022-08-25T03:08:19;99850.28;;;21.55;63.54
30730;BME280;17476;48.458;7.928;2022-08-25T03:10:45;99849.69;;;21.52;63.89
30730;BME280;17476;48.458;7.928;2022-08-25T03:13:11;99846.53;;;21.27;67.65
30730;BME280;17476;48.458;7.928;2022-08-25T03:15:37;99843.09;;;21.15;65.63
30730;BME280;17476;48.458;7.928;2022-08-25T03:18:04;99846.19;;;21.23;65.59
30730;BME280;17476;48.458;7.928;2022-08-25T03:20:30;99835.63;;;20.88;69.18
30730;BME280;17476;48.458;7.928;2022-08-25T03:22:57;99846.50;;;20.87;67.13
30730;BME280;17476;48.458;7.928;2022-08-25T03:25:23;99853.31;;;20.48;71.56
30730;BME280;17476;48.458;7.928;2022-08-25T03:28:08;99855.63;;;20.56;68.46
30730;BME280;17476;48.458;7.928;2022-08-25T03:30:35;99861.16;;;20.66;68.00
30730;BME280;17476;48.458;7.928;2022-08-25T03:33:02;99857.13;;;20.63;68.36
30730;BME280;17476;48.458;7.928;2022-08-25T03:35:28;99852.88;;;20.62;70.30
30730;BME280;17476;48.458;7.928;2022-08-25T03:37:56;99865.56;;;20.49;69.09
30730;BME280;17476;48.458;7.928;2022-08-25T03:40:23;99862.44;;;20.63;68.07
30730;BME280;17476;48.458;7.928;2022-08-25T03:42:49;99871.56;;;20.79;67.88
30730;BME280;17476;48.458;7.928;2022-08-25T03:45:16;99858.28;;;20.91;66.94
30730;BME280;17476;48.458;7.928;2022-08-25T03:47:49;99857.34;;;20.97;66.48
30730;BME280;17476;48.458;7.928;2022-08-25T03:50:17;99856.41;;;21.03;66.27
30730;BME280;17476;48.458;7.928;2022-08-25T03:52:50;99857.34;;;21.09;65.87
30730;BME280;17476;48.458;7.928;2022-08-25T03:55:16;99851.28;;;21.13;65.75
30730;BME280;17476;48.458;7.928;2022-08-25T03:57:42;99850.03;;;21.16;65.50
30730;BME280;17476;48.458;7.928;2022-08-25T04:00:10;99851.63;;;21.17;65.56
30730;BME280;17476;48.458;7.928;2022-08-25T04:02:37;99855.66;;;21.19;65.55
30730;BME280;17476;48.458;7.928;2022-08-25T04:05:05;99855.66;;;21.19;65.40
30730;BME280;17476;48.458;7.928;2022-08-25T04:07:31;99862.63;;;21.20;65.53
30730;BME280;17476;48.458;7.928;2022-08-25T04:10:07;99870.94;;;21.12;66.53
30730;BME280;17476;48.458;7.928;2022-08-25T04:12:35;99864.75;;;21.07;66.04
30730;BME280;17476;48.458;7.928;2022-08-25T04:15:03;99875.03;;;21.03;66.82
30730;BME280;17476;48.458;7.928;2022-08-25T04:17:29;99873.53;;;20.95;66.55
30730;BME280;17476;48.458;7.928;2022-08-25T04:19:55;99863.59;;;20.91;66.95
30730;BME280;17476;48.458;7.928;2022-08-25T04:22:22;99870.06;;;20.95;66.36
30730;BME280;17476;48.458;7.928;2022-08-25T04:24:48;99866.25;;;20.91;66.76
30730;BME280;17476;48.458;7.928;2022-08-25T04:27:14;99868.78;;;20.86;66.75
30730;BME280;17476;48.458;7.928;2022-08-25T04:29:40;99864.31;;;20.86;66.68
30730;BME280;17476;48.458;7.928;2022-08-25T04:32:06;99866.13;;;20.86;66.51
30730;BME280;17476;48.458;7.928;2022-08-25T04:34:32;99867.78;;;20.87;66.35
30730;BME280;17476;48.458;7.928;2022-08-25T04:37:03;99860.25;;;20.84;66.44
30730;BME280;17476;48.458;7.928;2022-08-25T04:39:32;99854.59;;;20.80;66.68
30730;BME280;17476;48.458;7.928;2022-08-25T04:41:59;99863.38;;;20.81;66.68
30730;BME280;17476;48.458;7.928;2022-08-25T04:44:26;99852.28;;;20.84;66.76
30730;BME280;17476;48.458;7.928;2022-08-25T04:46:52;99853.06;;;20.84;66.81
30730;BME280;17476;48.458;7.928;2022-08-25T04:49:18;99860.47;;;20.82;67.80
30730;BME280;17476;48.458;7.928;2022-08-25T04:51:44;99859.69;;;20.82;67.31
30730;BME280;17476;48.458;7.928;2022-08-25T04:54:14;99854.72;;;20.74;67.64
30730;BME280;17476;48.458;7.928;2022-08-25T04:56:47;99855.28;;;20.76;67.55
30730;BME280;17476;48.458;7.928;2022-08-25T04:59:15;99859.31;;;20.78;67.31
30730;BME280;17476;48.458;7.928;2022-08-25T05:01:43;99855.41;;;20.81;66.83
30730;BME280;17476;48.458;7.928;2022-08-25T05:04:12;99859.56;;;20.88;66.79
30730;BME280;17476;48.458;7.928;2022-08-25T05:06:40;99863.59;;;20.91;66.83
30730;BME280;17476;48.458;7.928;2022-08-25T05:09:06;99858.03;;;20.92;66.69
30730;BME280;17476;48.458;7.928;2022-08-25T05:11:32;99854.22;;;21.00;66.92
30730;BME280;17476;48.458;7.928;2022-08-25T05:14:00;99849.81;;;21.06;66.17
30730;BME280;17476;48.458;7.928;2022-08-25T05:16:27;99854.94;;;20.95;67.29
30730;BME280;17476;48.458;7.928;2022-08-25T05:18:53;99843.25;;;20.85;67.49
30730;BME280;17476;48.458;7.928;2022-08-25T05:21:23;99847.63;;;20.91;67.56
30730;BME280;17476;48.458;7.928;2022-08-25T05:23:52;99834.66;;;21.06;67.06
30730;BME280;17476;48.458;7.928;2022-08-25T05:26:20;99837.78;;;21.15;66.77
30730;BME280;17476;48.458;7.928;2022-08-25T05:28:49;99836.63;;;21.11;67.01
30730;BME280;17476;48.458;7.928;2022-08-25T05:31:16;99832.66;;;21.13;67.28
30730;BME280;17476;48.458;7.928;2022-08-25T05:33:43;99834.53;;;21.13;67.29
30730;BME280;17476;48.458;7.928;2022-08-25T05:36:11;99831.53;;;21.21;66.87
30730;BME280;17476;48.458;7.928;2022-08-25T05:38:37;99835.75;;;21.34;66.17
30730;BME280;17476;48.458;7.928;2022-08-25T05:41:07;99831.72;;;21.43;65.96
30730;BME280;17476;48.458;7.928;2022-08-25T05:43:39;99835.06;;;21.38;67.46
30730;BME280;17476;48.458;7.928;2022-08-25T05:46:06;99826.41;;;21.31;66.32
30730;BME280;17476;48.458;7.928;2022-08-25T05:48:33;99825.47;;;21.37;65.93
30730;BME280;17476;48.458;7.928;2022-08-25T05:51:01;99823.63;;;21.38;67.35
30730;BME280;17476;48.458;7.928;2022-08-25T05:53:29;99827.31;;;21.37;66.62
30730;BME280;17476;48.458;7.928;2022-08-25T05:55:57;99828.09;;;21.49;65.57
30730;BME280;17476;48.458;7.928;2022-08-25T05:58:25;99837.66;;;21.62;65.14
30730;BME280;17476;48.458;7.928;2022-08-25T06:00:54;99822.66;;;21.72;64.96
30730;BME280;17476;48.458;7.928;2022-08-25T06:03:20;99821.22;;;21.82;65.18
30730;BME280;17476;48.458;7.928;2022-08-25T06:05:46;99818.88;;;21.85;65.94
30730;BME280;17476;48.458;7.928;2022-08-25T06:08:12;99805.16;;;21.76;65.34
30730;BME280;17476;48.458;7.928;2022-08-25T06:10:38;99805.72;;;21.78;65.91
30730;BME280;17476;48.458;7.928;2022-08-25T06:13:04;99801.06;;;21.86;64.93
30730;BME280;17476;48.458;7.928;2022-08-25T06:15:31;99795.41;;;21.99;64.71
30730;BME280;17476;48.458;7.928;2022-08-25T06:17:57;99791.41;;;22.13;65.20
30730;BME280;17476;48.458;7.928;2022-08-25T06:20:26;99787.94;;;22.13;66.01
30730;BME280;17476;48.458;7.928;2022-08-25T06:22:53;99788.88;;;22.06;66.25
30730;BME280;17476;48.458;7.928;2022-08-25T06:25:23;99779.69;;;22.14;65.91
30730;BME280;17476;48.458;7.928;2022-08-25T06:27:49;99777.28;;;22.13;66.43
30730;BME280;17476;48.458;7.928;2022-08-25T06:30:19;99786.25;;;22.23;65.22
30730;BME280;17476;48.458;7.928;2022-08-25T06:32:46;99783.09;;;22.26;65.64
30730;BME280;17476;48.458;7.928;2022-08-25T06:35:16;99777.59;;;22.33;65.96
30730;BME280;17476;48.458;7.928;2022-08-25T06:37:43;99782.56;;;22.46;65.23
30730;BME280;17476;48.458;7.928;2022-08-25T06:40:11;99778.56;;;22.66;65.00
30730;BME280;17476;48.458;7.928;2022-08-25T06:42:37;99779.19;;;22.73;63.17
30730;BME280;17476;48.458;7.928;2022-08-25T06:45:07;99775.03;;;22.82;64.57
30730;BME280;17476;48.458;7.928;2022-08-25T06:47:33;99775.81;;;22.99;64.19
30730;BME280;17476;48.458;7.928;2022-08-25T06:49:59;99768.50;;;23.11;62.13
30730;BME280;17476;48.458;7.928;2022-08-25T06:52:25;99774.50;;;23.24;62.04
30730;BME280;17476;48.458;7.928;2022-08-25T06:54:51;99776.06;;;23.47;61.10
30730;BME280;17476;48.458;7.928;2022-08-25T06:57:17;99782.16;;;23.69;60.46
30730;BME280;17476;48.458;7.928;2022-08-25T06:59:43;99777.22;;;23.83;60.45
30730;BME280;17476;48.458;7.928;2022-08-25T07:02:09;99778.59;;;23.90;59.64
30730;BME280;17476;48.458;7.928;2022-08-25T07:04:35;99780.03;;;23.98;59.56
30730;BME280;17476;48.458;7.928;2022-08-25T07:07:02;99784.69;;;24.13;58.94
30730;BME280;17476;48.458;7.928;2022-08-25T07:09:28;99788.84;;;24.36;58.21
30730;BME280;17476;48.458;7.928;2022-08-25T07:11:54;99776.41;;;24.57;57.79
30730;BME280;17476;48.458;7.928;2022-08-25T07:14:21;99787.22;;;24.77;56.78
30730;BME280;17476;48.458;7.928;2022-08-25T07:16:47;99786.13;;;24.73;57.29
30730;BME280;17476;48.458;7.928;2022-08-25T07:19:13;99786.72;;;24.90;57.27
30730;BME280;17476;48.458;7.928;2022-08-25T07:21:41;99782.88;;;25.23;57.14
30730;BME280;17476;48.458;7.928;2022-08-25T07:24:11;99785.34;;;25.55;55.74
30730;BME280;17476;48.458;7.928;2022-08-25T07:26:40;99781.63;;;25.92;55.48
30730;BME280;17476;48.458;7.928;2022-08-25T07:29:19;99784.53;;;26.26;53.78
30730;BME280;17476;48.458;7.928;2022-08-25T07:31:46;99782.63;;;26.62;53.06
30730;BME280;17476;48.458;7.928;2022-08-25T07:34:12;99784.88;;;27.10;51.30
30730;BME280;17476;48.458;7.928;2022-08-25T07:36:57;99788.63;;;27.58;51.77
30730;BME280;17476;48.458;7.928;2022-08-25T07:39:25;99787.41;;;28.09;49.34
30730;BME280;17476;48.458;7.928;2022-08-25T07:41:52;99788.28;;;28.57;48.45
30730;BME280;17476;48.458;7.928;2022-08-25T07:44:20;99789.38;;;29.04;46.80
30730;BME280;17476;48.458;7.928;2022-08-25T07:46:46;99781.69;;;29.35;46.09
30730;BME280;17476;48.458;7.928;2022-08-25T07:49:12;99788.59;;;29.60;44.96
30730;BME280;17476;48.458;7.928;2022-08-25T07:51:38;99781.81;;;29.81;44.53
30730;BME280;17476;48.458;7.928;2022-08-25T07:54:05;99793.28;;;29.87;43.96
30730;BME280;17476;48.458;7.928;2022-08-25T07:56:31;99789.03;;;30.00;43.58
30730;BME280;17476;48.458;7.928;2022-08-25T07:58:57;99786.94;;;30.29;43.26
30730;BME280;17476;48.458;7.928;2022-08-25T08:01:24;99792.84;;;30.45;42.48
30730;BME280;17476;48.458;7.928;2022-08-25T08:03:51;99793.75;;;30.68;42.51
30730;BME280;17476;48.458;7.928;2022-08-25T08:06:20;99790.06;;;30.91;42.02
30730;BME280;17476;48.458;7.928;2022-08-25T08:08:47;99797.63;;;31.31;41.91
30730;BME280;17476;48.458;7.928;2022-08-25T08:11:19;99795.00;;;31.62;41.17
30730;BME280;17476;48.458;7.928;2022-08-25T08:13:46;99796.72;;;32.02;39.98
30730;BME280;17476;48.458;7.928;2022-08-25T08:16:15;99793.75;;;32.35;39.89
30730;BME280;17476;48.458;7.928;2022-08-25T08:18:43;99797.03;;;32.63;39.07
30730;BME280;17476;48.458;7.928;2022-08-25T08:21:20;99792.03;;;32.88;38.67
30730;BME280;17476;48.458;7.928;2022-08-25T08:23:48;99783.94;;;33.13;38.24
30730;BME280;17476;48.458;7.928;2022-08-25T08:26:15;99791.94;;;33.27;37.47
30730;BME280;17476;48.458;7.928;2022-08-25T08:28:41;99785.25;;;33.51;37.56
30730;BME280;17476;48.458;7.928;2022-08-25T08:31:07;99780.75;;;33.72;37.00
30730;BME280;17476;48.458;7.928;2022-08-25T08:33:33;99771.97;;;33.92;36.69
30730;BME280;17476;48.458;7.928;2022-08-25T08:36:07;99770.03;;;34.02;35.88
30730;BME280;17476;48.458;7.928;2022-08-25T08:38:34;99766.66;;;34.05;36.39
30730;BME280;17476;48.458;7.928;2022-08-25T08:50:55;99768.00;;;35.38;33.80
30730;BME280;17476;48.458;7.928;2022-08-25T08:53:43;99770.59;;;35.55;33.00
30730;BME280;17476;48.458;7.928;2022-08-25T08:56:19;99766.66;;;35.98;33.27
30730;BME280;17476;48.458;7.928;2022-08-25T08:58:51;99758.06;;;36.20;32.76
30730;BME280;17476;48.458;7.928;2022-08-25T09:01:32;99767.41;;;36.44;32.27
30730;BME280;17476;48.458;7.928;2022-08-25T09:04:19;99754.69;;;36.60;32.44
30730;BME280;17476;48.458;7.928;2022-08-25T09:06:50;99752.25;;;37.07;31.06
30730;BME280;17476;48.458;7.928;2022-08-25T09:09:29;99762.53;;;37.26;30.88
30730;BME280;17476;48.458;7.928;2022-08-25T09:12:49;99750.66;;;37.47;30.46
30730;BME280;17476;48.458;7.928;2022-08-25T09:19:12;99744.63;;;37.85;29.33
30730;BME280;17476;48.458;7.928;2022-08-25T09:22:09;99745.34;;;38.13;29.35
30730;BME280;17476;48.458;7.928;2022-08-25T09:30:52;99746.47;;;39.14;27.20
30730;BME280;17476;48.458;7.928;2022-08-25T09:33:21;99733.31;;;39.39;26.87
30730;BME280;17476;48.458;7.928;2022-08-25T09:35:50;99735.78;;;39.25;27.78
30730;BME280;17476;48.458;7.928;2022-08-25T09:38:17;99725.09;;;39.39;27.65
30730;BME280;17476;48.458;7.928;2022-08-25T09:40:52;99727.56;;;39.44;27.02
30730;BME280;17476;48.458;7.928;2022-08-25T09:48:49;99709.72;;;40.23;26.50
30730;BME280;17476;48.458;7.928;2022-08-25T09:54:03;99711.69;;;40.22;26.37
30730;BME280;17476;48.458;7.928;2022-08-25T09:56:32;99715.44;;;40.63;25.92
30730;BME280;17476;48.458;7.928;2022-08-25T10:01:58;99702.84;;;40.89;25.66
30730;BME280;17476;48.458;7.928;2022-08-25T10:04:32;99703.69;;;41.27;24.82
30730;BME280;17476;48.458;7.928;2022-08-25T10:07:00;99710.53;;;41.40;24.76
30730;BME280;17476;48.458;7.928;2022-08-25T10:09:41;99701.28;;;41.22;25.02
30730;BME280;17476;48.458;7.928;2022-08-25T10:12:31;99703.94;;;41.14;24.49
30730;BME280;17476;48.458;7.928;2022-08-25T10:15:17;99698.03;;;40.82;23.97
30730;BME280;17476;48.458;7.928;2022-08-25T10:17:44;99689.03;;;40.02;25.19
30730;BME280;17476;48.458;7.928;2022-08-25T10:22:41;99696.06;;;40.00;27.57
30730;BME280;17476;48.458;7.928;2022-08-25T10:25:12;99694.06;;;40.46;25.92
30730;BME280;17476;48.458;7.928;2022-08-25T10:30:15;99684.56;;;41.00;25.18
30730;BME280;17476;48.458;7.928;2022-08-25T10:33:14;99674.41;;;41.38;25.35
30730;BME280;17476;48.458;7.928;2022-08-25T10:38:43;99676.84;;;41.47;24.55
30730;BME280;17476;48.458;7.928;2022-08-25T10:50:42;99660.59;;;42.26;23.35
30730;BME280;17476;48.458;7.928;2022-08-25T11:01:47;99647.34;;;42.46;22.00
30730;BME280;17476;48.458;7.928;2022-08-25T11:07:19;99634.84;;;41.42;22.18
30730;BME280;17476;48.458;7.928;2022-08-25T11:09:49;99630.63;;;41.15;21.71
30730;BME280;17476;48.458;7.928;2022-08-25T11:12:46;99635.97;;;41.01;23.71
30730;BME280;17476;48.458;7.928;2022-08-25T11:15:39;99633.44;;;41.63;23.15
30730;BME280;17476;48.458;7.928;2022-08-25T11:18:11;99626.16;;;41.85;22.61
30730;BME280;17476;48.458;7.928;2022-08-25T11:21:12;99626.00;;;42.18;21.13
30730;BME280;17476;48.458;7.928;2022-08-25T11:23:54;99625.09;;;42.69;20.99
30730;BME280;17476;48.458;7.928;2022-08-25T11:26:29;99622.06;;;43.17;21.89
30730;BME280;17476;48.458;7.928;2022-08-25T11:31:41;99614.16;;;44.23;20.77
30730;BME280;17476;48.458;7.928;2022-08-25T11:34:11;99621.25;;;44.27;19.25
30730;BME280;17476;48.458;7.928;2022-08-25T11:36:48;99613.44;;;43.97;20.04
30730;BME280;17476;48.458;7.928;2022-08-25T11:45:59;99598.88;;;43.86;20.19
30730;BME280;17476;48.458;7.928;2022-08-25T11:51:26;99591.78;;;43.89;20.61
30730;BME280;17476;48.458;7.928;2022-08-25T11:54:34;99596.81;;;42.87;20.50
30730;BME280;17476;48.458;7.928;2022-08-25T11:57:29;99587.38;;;42.88;19.81
30730;BME280;17476;48.458;7.928;2022-08-25T12:00:09;99580.72;;;42.89;20.34
30730;BME280;17476;48.458;7.928;2022-08-25T12:02:46;99583.53;;;43.24;20.93
30730;BME280;17476;48.458;7.928;2022-08-25T12:08:01;99580.53;;;44.60;21.03
30730;BME280;17476;48.458;7.928;2022-08-25T12:11:02;99580.78;;;45.39;20.31
30730;BME280;17476;48.458;7.928;2022-08-25T12:13:49;99574.00;;;44.91;18.85
30730;BME280;17476;48.458;7.928;2022-08-25T12:35:52;99568.09;;;44.20;18.95
30730;BME280;17476;48.458;7.928;2022-08-25T12:38:45;99557.28;;;44.54;20.09
30730;BME280;17476;48.458;7.928;2022-08-25T12:41:22;99559.25;;;44.50;18.70
30730;BME280;17476;48.458;7.928;2022-08-25T12:43:53;99548.97;;;44.64;19.83
30730;BME280;17476;48.458;7.928;2022-08-25T12:46:32;99553.25;;;44.73;19.25
30730;BME280;17476;48.458;7.928;2022-08-25T12:49:31;99549.47;;;45.08;19.63
30730;BME280;17476;48.458;7.928;2022-08-25T12:52:11;99550.03;;;44.85;19.25
30730;BME280;17476;48.458;7.928;2022-08-25T12:54:52;99542.94;;;45.39;19.13
30730;BME280;17476;48.458;7.928;2022-08-25T12:57:55;99537.50;;;44.70;19.07
30730;BME280;17476;48.458;7.928;2022-08-25T13:15:39;99532.88;;;45.56;18.26
30730;BME280;17476;48.458;7.928;2022-08-25T13:18:28;99530.72;;;44.81;19.69
30730;BME280;17476;48.458;7.928;2022-08-25T13:23:37;99514.78;;;45.89;17.34
30730;BME280;17476;48.458;7.928;2022-08-25T13:26:05;99524.34;;;45.81;18.76
30730;BME280;17476;48.458;7.928;2022-08-25T13:28:36;99518.31;;;46.24;19.36
30730;BME280;17476;48.458;7.928;2022-08-25T13:31:16;99514.22;;;46.63;17.31
30730;BME280;17476;48.458;7.928;2022-08-25T13:33:52;99515.47;;;46.85;17.53
30730;BME280;17476;48.458;7.928;2022-08-25T13:36:19;99508.34;;;46.30;16.11
30730;BME280;17476;48.458;7.928;2022-08-25T13:39:22;99504.78;;;46.30;18.17
30730;BME280;17476;48.458;7.928;2022-08-25T13:41:50;99501.81;;;46.17;18.64
30730;BME280;17476;48.458;7.928;2022-08-25T13:44:19;99507.59;;;46.26;18.72
30730;BME280;17476;48.458;7.928;2022-08-25T13:46:46;99500.47;;;46.29;17.42
30730;BME280;17476;48.458;7.928;2022-08-25T13:49:24;99503.31;;;45.53;17.68
30730;BME280;17476;48.458;7.928;2022-08-25T13:51:53;99503.72;;;45.52;19.20
30730;BME280;17476;48.458;7.928;2022-08-25T13:54:30;99506.19;;;45.80;18.56
30730;BME280;17476;48.458;7.928;2022-08-25T13:57:27;99499.44;;;45.47;18.77
30730;BME280;17476;48.458;7.928;2022-08-25T14:00:07;99489.38;;;45.23;18.40
30730;BME280;17476;48.458;7.928;2022-08-25T14:02:48;99499.66;;;43.75;17.91
30730;BME280;17476;48.458;7.928;2022-08-25T14:05:47;99488.25;;;42.41;19.20
30730;BME280;17476;48.458;7.928;2022-08-25T14:08:35;99490.25;;;41.13;20.91
30730;BME280;17476;48.458;7.928;2022-08-25T14:11:10;99484.91;;;40.86;21.30
30730;BME280;17476;48.458;7.928;2022-08-25T14:13:39;99489.94;;;41.73;22.25
30730;BME280;17476;48.458;7.928;2022-08-25T14:16:18;99483.16;;;42.50;21.51
30730;BME280;17476;48.458;7.928;2022-08-25T14:18:56;99488.31;;;42.70;19.76
30730;BME280;17476;48.458;7.928;2022-08-25T14:21:29;99486.25;;;42.35;20.67
30730;BME280;17476;48.458;7.928;2022-08-25T14:23:56;99481.41;;;42.07;21.72
30730;BME280;17476;48.458;7.928;2022-08-25T14:26:24;99485.78;;;40.57;21.71
30730;BME280;17476;48.458;7.928;2022-08-25T14:28:50;99479.16;;;40.24;22.42
30730;BME280;17476;48.458;7.928;2022-08-25T14:33:57;99482.66;;;40.55;23.02
30730;BME280;17476;48.458;7.928;2022-08-25T14:36:24;99477.94;;;40.55;23.40
30730;BME280;17476;48.458;7.928;2022-08-25T14:38:50;99473.91;;;40.46;22.97
30730;BME280;17476;48.458;7.928;2022-08-25T14:41:19;99480.50;;;38.59;24.41
30730;BME280;17476;48.458;7.928;2022-08-25T14:43:46;99482.91;;;38.41;24.75
30730;BME280;17476;48.458;7.928;2022-08-25T14:46:33;99484.78;;;38.37;24.35
30730;BME280;17476;48.458;7.928;2022-08-25T14:49:05;99475.28;;;38.50;25.63
30730;BME280;17476;48.458;7.928;2022-08-25T14:51:33;99472.53;;;38.50;24.60
30730;BME280;17476;48.458;7.928;2022-08-25T14:54:03;99476.50;;;37.60;25.33
30730;BME280;17476;48.458;7.928;2022-08-25T14:56:31;99477.63;;;37.59;25.73
30730;BME280;17476;48.458;7.928;2022-08-25T14:58:58;99469.31;;;36.88;26.03
30730;BME280;17476;48.458;7.928;2022-08-25T15:01:25;99467.88;;;35.95;27.22
30730;BME280;17476;48.458;7.928;2022-08-25T15:03:58;99465.84;;;35.67;27.65
30730;BME280;17476;48.458;7.928;2022-08-25T15:06:27;99465.88;;;35.43;28.42
30730;BME280;17476;48.458;7.928;2022-08-25T15:08:52;99461.91;;;35.52;28.57
30730;BME280;17476;48.458;7.928;2022-08-25T15:11:42;99456.47;;;35.65;29.96
30730;BME280;17476;48.458;7.928;2022-08-25T15:14:11;99461.13;;;35.64;28.12
30730;BME280;17476;48.458;7.928;2022-08-25T15:16:47;99461.31;;;35.22;29.06
30730;BME280;17476;48.458;7.928;2022-08-25T15:19:19;99457.13;;;35.00;28.74
30730;BME280;17476;48.458;7.928;2022-08-25T15:21:46;99450.19;;;34.91;28.82
30730;BME280;17476;48.458;7.928;2022-08-25T15:24:14;99458.69;;;35.01;30.06
30730;BME280;17476;48.458;7.928;2022-08-25T15:26:55;99451.81;;;35.04;28.38